sensor_id;sensor_type;location;lat;lon;timestamp;P1;durP1;ratioP1;P2;durP2;ratioP2
19535;SDS011;9913;51.168;4.124;2024-03-02T00:01:20;3.70;;;1.20;;
19535;SDS011;9913;51.168;4.124;2024-03-02T00:03:49;1.57;;;1.10;;
19535;SDS011;9913;51.168;4.124;2024-03-02T00:06:19;1.60;;;0.70;;
19535;SDS011;9913;51.168;4.124;2024-03-02T00:08:49;2.63;;;1.00;;
19535;SDS011;9913;51.168;4.124;2024-03-02T00:11:19;1.37;;;0.80;;
19535;SDS011;9913;51.168;4.124;2024-03-02T00:13:47;4.07;;;1.00;;
19535;SDS011;9913;51.168;4.124;2024-03-02T00:16:16;1.77;;;0.80;;
19535;SDS011;9913;51.168;4.124;2024-03-02T00:18:45;1.67;;;0.90;;
19535;SDS011;9913;51.168;4.124;2024-03-02T00:21:13;1.93;;;0.87;;
19535;SDS011;9913;51.168;4.124;2024-03-02T00:23:45;1.20;;;0.80;;
19535;SDS011;9913;51.168;4.124;2024-03-02T00:26:14;1.70;;;0.90;;
19535;SDS011;9913;51.168;4.124;2024-03-02T00:28:44;2.90;;;0.97;;
19535;SDS011;9913;51.168;4.124;2024-03-02T00:31:12;1.13;;;0.80;;
19535;SDS011;9913;51.168;4.124;2024-03-02T00:33:42;2.00;;;1.00;;
19535;SDS011;9913;51.168;4.124;2024-03-02T00:36:12;1.10;;;0.90;;
19535;SDS011;9913;51.168;4.124;2024-03-02T00:38:44;1.67;;;0.70;;
19535;SDS011;9913;51.168;4.124;2024-03-02T00:41:17;1.00;;;0.63;;
19535;SDS011;9913;51.168;4.124;2024-03-02T00:43:53;1.40;;;0.80;;
19535;SDS011;9913;51.168;4.124;2024-03-02T00:46:26;1.90;;;0.90;;
19535;SDS011;9913;51.168;4.124;2024-03-02T00:48:57;1.13;;;0.70;;
19535;SDS011;9913;51.168;4.124;2024-03-02T00:51:27;1.67;;;0.80;;
19535;SDS011;9913;51.168;4.124;2024-03-02T00:53:58;2.30;;;0.80;;
19535;SDS011;9913;51.168;4.124;2024-03-02T00:56:29;3.47;;;0.90;;
19535;SDS011;9913;51.168;4.124;2024-03-02T00:58:58;1.20;;;0.60;;
19535;SDS011;9913;51.168;4.124;2024-03-02T01:01:26;1.70;;;0.70;;
19535;SDS011;9913;51.168;4.124;2024-03-02T01:03:54;2.77;;;1.00;;
19535;SDS011;9913;51.168;4.124;2024-03-02T01:06:23;0.90;;;0.70;;
19535;SDS011;9913;51.168;4.124;2024-03-02T01:08:51;1.30;;;0.60;;
19535;SDS011;9913;51.168;4.124;2024-03-02T01:11:19;1.47;;;0.80;;
19535;SDS011;9913;51.168;4.124;2024-03-02T01:13:51;2.83;;;1.00;;
19535;SDS011;9913;51.168;4.124;2024-03-02T01:16:20;1.43;;;0.83;;
19535;SDS011;9913;51.168;4.124;2024-03-02T01:18:48;1.27;;;0.77;;
19535;SDS011;9913;51.168;4.124;2024-03-02T01:21:17;3.73;;;1.00;;
19535;SDS011;9913;51.168;4.124;2024-03-02T01:23:45;2.03;;;1.00;;
19535;SDS011;9913;51.168;4.124;2024-03-02T01:26:13;1.73;;;0.90;;
19535;SDS011;9913;51.168;4.124;2024-03-02T01:28:41;2.00;;;0.97;;
19535;SDS011;9913;51.168;4.124;2024-03-02T01:31:11;3.67;;;1.10;;
19535;SDS011;9913;51.168;4.124;2024-03-02T01:33:39;1.77;;;0.90;;
19535;SDS011;9913;51.168;4.124;2024-03-02T01:36:08;2.30;;;0.93;;
19535;SDS011;9913;51.168;4.124;2024-03-02T01:38:36;2.60;;;1.40;;
19535;SDS011;9913;51.168;4.124;2024-03-02T01:41:04;1.57;;;0.97;;
19535;SDS011;9913;51.168;4.124;2024-03-02T01:43:33;2.30;;;1.00;;
19535;SDS011;9913;51.168;4.124;2024-03-02T01:46:05;1.77;;;1.10;;
19535;SDS011;9913;51.168;4.124;2024-03-02T01:48:34;2.03;;;1.20;;
19535;SDS011;9913;51.168;4.124;2024-03-02T01:51:03;1.53;;;1.03;;
19535;SDS011;9913;51.168;4.124;2024-03-02T01:53:33;1.70;;;1.00;;
19535;SDS011;9913;51.168;4.124;2024-03-02T01:56:01;1.70;;;1.00;;
19535;SDS011;9913;51.168;4.124;2024-03-02T01:58:30;1.40;;;1.03;;
19535;SDS011;9913;51.168;4.124;2024-03-02T02:00:58;1.93;;;1.40;;
19535;SDS011;9913;51.168;4.124;2024-03-02T02:03:27;3.37;;;1.47;;
19535;SDS011;9913;51.168;4.124;2024-03-02T02:05:57;3.10;;;1.40;;
19535;SDS011;9913;51.168;4.124;2024-03-02T02:08:25;1.93;;;1.30;;
19535;SDS011;9913;51.168;4.124;2024-03-02T02:10:54;4.73;;;1.13;;
19535;SDS011;9913;51.168;4.124;2024-03-02T02:13:22;2.37;;;1.30;;
19535;SDS011;9913;51.168;4.124;2024-03-02T02:15:50;1.60;;;1.20;;
19535;SDS011;9913;51.168;4.124;2024-03-02T02:18:20;1.70;;;1.23;;
19535;SDS011;9913;51.168;4.124;2024-03-02T02:20:48;2.40;;;1.27;;
19535;SDS011;9913;51.168;4.124;2024-03-02T02:23:18;2.50;;;1.70;;
19535;SDS011;9913;51.168;4.124;2024-03-02T02:25:46;3.53;;;1.40;;
19535;SDS011;9913;51.168;4.124;2024-03-02T02:28:15;3.17;;;1.20;;
19535;SDS011;9913;51.168;4.124;2024-03-02T02:30:43;2.60;;;1.30;;
19535;SDS011;9913;51.168;4.124;2024-03-02T02:33:11;1.80;;;1.30;;
19535;SDS011;9913;51.168;4.124;2024-03-02T02:35:40;2.50;;;1.47;;
19535;SDS011;9913;51.168;4.124;2024-03-02T02:38:08;3.00;;;1.40;;
19535;SDS011;9913;51.168;4.124;2024-03-02T02:40:37;1.20;;;0.97;;
19535;SDS011;9913;51.168;4.124;2024-03-02T02:43:05;1.93;;;1.20;;
19535;SDS011;9913;51.168;4.124;2024-03-02T02:45:34;2.30;;;1.20;;
19535;SDS011;9913;51.168;4.124;2024-03-02T02:48:03;2.10;;;1.23;;
19535;SDS011;9913;51.168;4.124;2024-03-02T02:50:31;2.10;;;1.33;;
19535;SDS011;9913;51.168;4.124;2024-03-02T02:53:00;3.47;;;1.40;;
19535;SDS011;9913;51.168;4.124;2024-03-02T02:55:28;3.93;;;1.30;;
19535;SDS011;9913;51.168;4.124;2024-03-02T02:57:58;2.67;;;1.57;;
19535;SDS011;9913;51.168;4.124;2024-03-02T03:00:26;2.37;;;1.47;;
19535;SDS011;9913;51.168;4.124;2024-03-02T03:02:54;3.87;;;1.43;;
19535;SDS011;9913;51.168;4.124;2024-03-02T03:05:23;4.23;;;1.50;;
19535;SDS011;9913;51.168;4.124;2024-03-02T03:07:51;3.40;;;1.30;;
19535;SDS011;9913;51.168;4.124;2024-03-02T03:10:19;3.73;;;1.10;;
19535;SDS011;9913;51.168;4.124;2024-03-02T03:12:51;3.20;;;1.60;;
19535;SDS011;9913;51.168;4.124;2024-03-02T03:15:21;1.93;;;1.10;;
19535;SDS011;9913;51.168;4.124;2024-03-02T03:17:50;3.90;;;1.63;;
19535;SDS011;9913;51.168;4.124;2024-03-02T03:20:18;3.23;;;1.27;;
19535;SDS011;9913;51.168;4.124;2024-03-02T03:22:48;2.50;;;1.27;;
19535;SDS011;9913;51.168;4.124;2024-03-02T03:25:16;2.80;;;1.50;;
19535;SDS011;9913;51.168;4.124;2024-03-02T03:27:44;3.30;;;1.33;;
19535;SDS011;9913;51.168;4.124;2024-03-02T03:30:13;2.27;;;1.10;;
19535;SDS011;9913;51.168;4.124;2024-03-02T03:32:43;1.57;;;1.00;;
19535;SDS011;9913;51.168;4.124;2024-03-02T03:35:12;1.90;;;1.00;;
19535;SDS011;9913;51.168;4.124;2024-03-02T03:37:41;2.77;;;1.20;;
19535;SDS011;9913;51.168;4.124;2024-03-02T03:40:10;2.63;;;1.20;;
19535;SDS011;9913;51.168;4.124;2024-03-02T03:42:40;2.37;;;1.03;;
19535;SDS011;9913;51.168;4.124;2024-03-02T03:45:09;2.23;;;1.03;;
19535;SDS011;9913;51.168;4.124;2024-03-02T03:47:37;3.33;;;1.20;;
19535;SDS011;9913;51.168;4.124;2024-03-02T03:50:07;3.17;;;1.57;;
19535;SDS011;9913;51.168;4.124;2024-03-02T03:52:36;3.53;;;1.20;;
19535;SDS011;9913;51.168;4.124;2024-03-02T03:55:05;2.77;;;1.20;;
19535;SDS011;9913;51.168;4.124;2024-03-02T03:57:33;4.10;;;1.30;;
19535;SDS011;9913;51.168;4.124;2024-03-02T04:00:02;3.30;;;1.30;;
19535;SDS011;9913;51.168;4.124;2024-03-02T04:02:40;3.13;;;1.40;;
19535;SDS011;9913;51.168;4.124;2024-03-02T04:05:10;3.33;;;1.20;;
19535;SDS011;9913;51.168;4.124;2024-03-02T04:07:38;2.43;;;1.10;;
19535;SDS011;9913;51.168;4.124;2024-03-02T04:10:08;4.93;;;1.20;;
19535;SDS011;9913;51.168;4.124;2024-03-02T04:12:38;3.63;;;1.10;;
19535;SDS011;9913;51.168;4.124;2024-03-02T04:15:07;1.67;;;0.90;;
19535;SDS011;9913;51.168;4.124;2024-03-02T04:17:35;2.90;;;0.93;;
19535;SDS011;9913;51.168;4.124;2024-03-02T04:20:04;4.50;;;1.20;;
19535;SDS011;9913;51.168;4.124;2024-03-02T04:22:35;1.67;;;0.80;;
19535;SDS011;9913;51.168;4.124;2024-03-02T04:25:04;6.00;;;1.17;;
19535;SDS011;9913;51.168;4.124;2024-03-02T04:27:34;2.47;;;0.80;;
19535;SDS011;9913;51.168;4.124;2024-03-02T04:30:03;1.90;;;0.80;;
19535;SDS011;9913;51.168;4.124;2024-03-02T04:32:33;2.00;;;1.00;;
19535;SDS011;9913;51.168;4.124;2024-03-02T04:35:03;1.50;;;0.80;;
19535;SDS011;9913;51.168;4.124;2024-03-02T04:37:34;4.13;;;1.10;;
19535;SDS011;9913;51.168;4.124;2024-03-02T04:40:04;2.63;;;1.37;;
19535;SDS011;9913;51.168;4.124;2024-03-02T04:42:35;3.37;;;1.57;;
19535;SDS011;9913;51.168;4.124;2024-03-02T04:45:04;2.80;;;1.00;;
19535;SDS011;9913;51.168;4.124;2024-03-02T04:47:33;1.73;;;1.20;;
19535;SDS011;9913;51.168;4.124;2024-03-02T04:50:02;3.23;;;1.33;;
19535;SDS011;9913;51.168;4.124;2024-03-02T04:52:30;4.07;;;0.97;;
19535;SDS011;9913;51.168;4.124;2024-03-02T04:55:00;2.60;;;0.97;;
19535;SDS011;9913;51.168;4.124;2024-03-02T04:57:50;3.73;;;1.20;;
19535;SDS011;9913;51.168;4.124;2024-03-02T05:00:21;3.73;;;1.00;;
19535;SDS011;9913;51.168;4.124;2024-03-02T05:02:50;3.73;;;1.13;;
19535;SDS011;9913;51.168;4.124;2024-03-02T05:05:18;3.43;;;1.60;;
19535;SDS011;9913;51.168;4.124;2024-03-02T05:07:47;4.73;;;1.17;;
19535;SDS011;9913;51.168;4.124;2024-03-02T05:10:16;3.30;;;1.20;;
19535;SDS011;9913;51.168;4.124;2024-03-02T05:12:45;2.77;;;1.10;;
19535;SDS011;9913;51.168;4.124;2024-03-02T05:15:24;4.90;;;1.47;;
19535;SDS011;9913;51.168;4.124;2024-03-02T05:17:52;5.33;;;1.30;;
19535;SDS011;9913;51.168;4.124;2024-03-02T05:20:21;4.90;;;1.70;;
19535;SDS011;9913;51.168;4.124;2024-03-02T05:22:49;2.40;;;1.40;;
19535;SDS011;9913;51.168;4.124;2024-03-02T05:25:19;5.30;;;1.30;;
19535;SDS011;9913;51.168;4.124;2024-03-02T05:27:47;4.80;;;1.40;;
19535;SDS011;9913;51.168;4.124;2024-03-02T05:30:16;2.87;;;1.20;;
19535;SDS011;9913;51.168;4.124;2024-03-02T05:32:44;5.20;;;1.20;;
19535;SDS011;9913;51.168;4.124;2024-03-02T05:35:12;2.17;;;1.20;;
19535;SDS011;9913;51.168;4.124;2024-03-02T05:37:41;4.13;;;1.20;;
19535;SDS011;9913;51.168;4.124;2024-03-02T05:40:09;2.60;;;1.50;;
19535;SDS011;9913;51.168;4.124;2024-03-02T05:42:41;5.13;;;1.63;;
19535;SDS011;9913;51.168;4.124;2024-03-02T05:45:09;2.73;;;1.63;;
19535;SDS011;9913;51.168;4.124;2024-03-02T05:47:37;3.57;;;1.83;;
19535;SDS011;9913;51.168;4.124;2024-03-02T05:50:06;5.77;;;1.80;;
19535;SDS011;9913;51.168;4.124;2024-03-02T05:52:35;5.50;;;1.47;;
19535;SDS011;9913;51.168;4.124;2024-03-02T05:55:03;3.43;;;1.70;;
19535;SDS011;9913;51.168;4.124;2024-03-02T05:57:32;3.20;;;1.57;;
19535;SDS011;9913;51.168;4.124;2024-03-02T06:00:16;6.43;;;1.83;;
19535;SDS011;9913;51.168;4.124;2024-03-02T06:02:45;2.57;;;1.40;;
19535;SDS011;9913;51.168;4.124;2024-03-02T06:05:13;4.27;;;1.23;;
19535;SDS011;9913;51.168;4.124;2024-03-02T06:07:42;2.57;;;1.20;;
19535;SDS011;9913;51.168;4.124;2024-03-02T06:10:11;3.53;;;1.40;;
19535;SDS011;9913;51.168;4.124;2024-03-02T06:12:40;3.00;;;1.43;;
19535;SDS011;9913;51.168;4.124;2024-03-02T06:15:09;3.57;;;1.50;;
19535;SDS011;9913;51.168;4.124;2024-03-02T06:17:38;3.10;;;1.30;;
19535;SDS011;9913;51.168;4.124;2024-03-02T06:20:07;3.20;;;1.20;;
19535;SDS011;9913;51.168;4.124;2024-03-02T06:22:36;2.83;;;1.20;;
19535;SDS011;9913;51.168;4.124;2024-03-02T06:25:05;3.00;;;1.00;;
19535;SDS011;9913;51.168;4.124;2024-03-02T06:27:33;3.87;;;1.20;;
19535;SDS011;9913;51.168;4.124;2024-03-02T06:30:02;4.93;;;1.40;;
19535;SDS011;9913;51.168;4.124;2024-03-02T06:32:31;3.60;;;1.27;;
19535;SDS011;9913;51.168;4.124;2024-03-02T06:35:01;4.57;;;1.30;;
19535;SDS011;9913;51.168;4.124;2024-03-02T06:37:30;3.97;;;1.30;;
19535;SDS011;9913;51.168;4.124;2024-03-02T06:39:59;2.73;;;1.00;;
19535;SDS011;9913;51.168;4.124;2024-03-02T06:42:27;8.10;;;1.07;;
19535;SDS011;9913;51.168;4.124;2024-03-02T06:45:00;3.97;;;1.40;;
19535;SDS011;9913;51.168;4.124;2024-03-02T06:47:29;3.53;;;1.37;;
19535;SDS011;9913;51.168;4.124;2024-03-02T06:49:58;5.20;;;1.30;;
19535;SDS011;9913;51.168;4.124;2024-03-02T06:52:28;5.80;;;1.70;;
19535;SDS011;9913;51.168;4.124;2024-03-02T06:54:56;3.43;;;1.00;;
19535;SDS011;9913;51.168;4.124;2024-03-02T06:57:25;6.10;;;1.33;;
19535;SDS011;9913;51.168;4.124;2024-03-02T06:59:53;14.63;;;1.90;;
19535;SDS011;9913;51.168;4.124;2024-03-02T07:02:25;3.47;;;1.13;;
19535;SDS011;9913;51.168;4.124;2024-03-02T07:04:54;4.30;;;1.30;;
19535;SDS011;9913;51.168;4.124;2024-03-02T07:07:23;6.23;;;1.37;;
19535;SDS011;9913;51.168;4.124;2024-03-02T07:09:52;4.87;;;1.60;;
19535;SDS011;9913;51.168;4.124;2024-03-02T07:12:21;5.43;;;2.07;;
19535;SDS011;9913;51.168;4.124;2024-03-02T07:14:49;4.53;;;2.03;;
19535;SDS011;9913;51.168;4.124;2024-03-02T07:17:38;5.03;;;1.90;;
19535;SDS011;9913;51.168;4.124;2024-03-02T07:20:06;3.17;;;1.40;;
19535;SDS011;9913;51.168;4.124;2024-03-02T07:22:35;6.97;;;1.97;;
19535;SDS011;9913;51.168;4.124;2024-03-02T07:25:09;4.43;;;1.53;;
19535;SDS011;9913;51.168;4.124;2024-03-02T07:27:57;7.73;;;2.20;;
19535;SDS011;9913;51.168;4.124;2024-03-02T07:30:25;6.80;;;1.77;;
19535;SDS011;9913;51.168;4.124;2024-03-02T07:32:57;7.33;;;2.27;;
19535;SDS011;9913;51.168;4.124;2024-03-02T07:35:25;4.37;;;1.20;;
19535;SDS011;9913;51.168;4.124;2024-03-02T07:37:54;4.43;;;1.50;;
19535;SDS011;9913;51.168;4.124;2024-03-02T07:40:25;7.00;;;1.67;;
19535;SDS011;9913;51.168;4.124;2024-03-02T07:42:54;4.50;;;1.47;;
19535;SDS011;9913;51.168;4.124;2024-03-02T07:45:23;2.73;;;1.17;;
19535;SDS011;9913;51.168;4.124;2024-03-02T07:47:51;6.17;;;1.50;;
19535;SDS011;9913;51.168;4.124;2024-03-02T07:50:20;6.20;;;1.90;;
19535;SDS011;9913;51.168;4.124;2024-03-02T07:52:48;5.67;;;2.00;;
19535;SDS011;9913;51.168;4.124;2024-03-02T07:55:16;6.00;;;1.50;;
19535;SDS011;9913;51.168;4.124;2024-03-02T07:57:46;4.30;;;1.47;;
19535;SDS011;9913;51.168;4.124;2024-03-02T08:00:15;7.20;;;1.80;;
19535;SDS011;9913;51.168;4.124;2024-03-02T08:02:43;6.33;;;1.70;;
19535;SDS011;9913;51.168;4.124;2024-03-02T08:05:12;5.67;;;1.70;;
19535;SDS011;9913;51.168;4.124;2024-03-02T08:07:41;7.13;;;1.67;;
19535;SDS011;9913;51.168;4.124;2024-03-02T08:10:09;6.37;;;2.03;;
19535;SDS011;9913;51.168;4.124;2024-03-02T08:12:38;6.60;;;1.50;;
19535;SDS011;9913;51.168;4.124;2024-03-02T08:15:08;6.03;;;1.50;;
19535;SDS011;9913;51.168;4.124;2024-03-02T08:17:36;5.23;;;1.50;;
19535;SDS011;9913;51.168;4.124;2024-03-02T08:20:07;5.57;;;1.53;;
19535;SDS011;9913;51.168;4.124;2024-03-02T08:22:36;8.00;;;1.60;;
19535;SDS011;9913;51.168;4.124;2024-03-02T08:25:05;6.17;;;1.70;;
19535;SDS011;9913;51.168;4.124;2024-03-02T08:27:34;5.07;;;1.33;;
19535;SDS011;9913;51.168;4.124;2024-03-02T08:30:05;8.00;;;2.20;;
19535;SDS011;9913;51.168;4.124;2024-03-02T08:32:36;8.43;;;1.50;;
19535;SDS011;9913;51.168;4.124;2024-03-02T08:35:06;6.77;;;1.97;;
19535;SDS011;9913;51.168;4.124;2024-03-02T08:37:34;4.73;;;2.13;;
19535;SDS011;9913;51.168;4.124;2024-03-02T08:40:05;5.87;;;1.33;;
19535;SDS011;9913;51.168;4.124;2024-03-02T08:42:39;5.03;;;1.70;;
19535;SDS011;9913;51.168;4.124;2024-03-02T08:45:08;6.23;;;1.80;;
19535;SDS011;9913;51.168;4.124;2024-03-02T08:47:38;9.23;;;1.97;;
19535;SDS011;9913;51.168;4.124;2024-03-02T08:50:07;3.63;;;1.43;;
19535;SDS011;9913;51.168;4.124;2024-03-02T08:52:36;8.37;;;1.80;;
19535;SDS011;9913;51.168;4.124;2024-03-02T08:55:04;7.23;;;1.77;;
19535;SDS011;9913;51.168;4.124;2024-03-02T08:57:33;6.87;;;1.30;;
19535;SDS011;9913;51.168;4.124;2024-03-02T09:00:03;5.20;;;1.93;;
19535;SDS011;9913;51.168;4.124;2024-03-02T09:02:34;7.47;;;1.77;;
19535;SDS011;9913;51.168;4.124;2024-03-02T09:05:05;7.43;;;1.53;;
19535;SDS011;9913;51.168;4.124;2024-03-02T09:07:35;7.50;;;1.90;;
19535;SDS011;9913;51.168;4.124;2024-03-02T09:10:05;4.13;;;1.57;;
19535;SDS011;9913;51.168;4.124;2024-03-02T09:12:34;7.77;;;1.40;;
19535;SDS011;9913;51.168;4.124;2024-03-02T09:15:03;4.33;;;1.33;;
19535;SDS011;9913;51.168;4.124;2024-03-02T09:17:32;4.20;;;1.80;;
19535;SDS011;9913;51.168;4.124;2024-03-02T09:20:01;7.10;;;1.73;;
19535;SDS011;9913;51.168;4.124;2024-03-02T09:22:32;4.60;;;1.50;;
19535;SDS011;9913;51.168;4.124;2024-03-02T09:25:00;4.47;;;1.60;;
19535;SDS011;9913;51.168;4.124;2024-03-02T09:27:29;9.93;;;1.90;;
19535;SDS011;9913;51.168;4.124;2024-03-02T09:29:57;4.87;;;1.67;;
19535;SDS011;9913;51.168;4.124;2024-03-02T09:32:25;3.70;;;1.60;;
19535;SDS011;9913;51.168;4.124;2024-03-02T09:34:54;6.27;;;2.27;;
19535;SDS011;9913;51.168;4.124;2024-03-02T09:37:22;6.60;;;2.03;;
19535;SDS011;9913;51.168;4.124;2024-03-02T09:39:52;9.53;;;2.33;;
19535;SDS011;9913;51.168;4.124;2024-03-02T09:42:21;8.40;;;1.80;;
19535;SDS011;9913;51.168;4.124;2024-03-02T09:44:50;4.87;;;1.60;;
19535;SDS011;9913;51.168;4.124;2024-03-02T09:47:19;6.53;;;2.23;;
19535;SDS011;9913;51.168;4.124;2024-03-02T09:49:47;7.90;;;1.70;;
19535;SDS011;9913;51.168;4.124;2024-03-02T09:52:16;5.57;;;1.60;;
19535;SDS011;9913;51.168;4.124;2024-03-02T09:54:44;7.03;;;1.87;;
19535;SDS011;9913;51.168;4.124;2024-03-02T09:57:16;11.87;;;1.70;;
19535;SDS011;9913;51.168;4.124;2024-03-02T09:59:45;8.63;;;1.67;;
19535;SDS011;9913;51.168;4.124;2024-03-02T10:02:13;9.17;;;1.60;;
19535;SDS011;9913;51.168;4.124;2024-03-02T10:04:42;6.87;;;1.73;;
19535;SDS011;9913;51.168;4.124;2024-03-02T10:07:12;5.73;;;1.77;;
19535;SDS011;9913;51.168;4.124;2024-03-02T10:09:42;7.33;;;1.50;;
19535;SDS011;9913;51.168;4.124;2024-03-02T10:12:13;6.50;;;1.47;;
19535;SDS011;9913;51.168;4.124;2024-03-02T10:14:44;7.93;;;1.57;;
19535;SDS011;9913;51.168;4.124;2024-03-02T10:17:16;7.20;;;1.80;;
19535;SDS011;9913;51.168;4.124;2024-03-02T10:19:45;9.43;;;2.90;;
19535;SDS011;9913;51.168;4.124;2024-03-02T10:22:14;7.73;;;2.23;;
19535;SDS011;9913;51.168;4.124;2024-03-02T10:24:43;5.63;;;1.27;;
19535;SDS011;9913;51.168;4.124;2024-03-02T10:27:14;7.37;;;1.80;;
19535;SDS011;9913;51.168;4.124;2024-03-02T10:29:46;5.97;;;1.63;;
19535;SDS011;9913;51.168;4.124;2024-03-02T10:32:15;7.43;;;2.00;;
19535;SDS011;9913;51.168;4.124;2024-03-02T10:34:44;6.90;;;1.60;;
19535;SDS011;9913;51.168;4.124;2024-03-02T10:37:14;5.67;;;1.70;;
19535;SDS011;9913;51.168;4.124;2024-03-02T10:39:44;12.60;;;2.10;;
19535;SDS011;9913;51.168;4.124;2024-03-02T10:42:14;7.23;;;1.93;;
19535;SDS011;9913;51.168;4.124;2024-03-02T10:44:43;7.00;;;1.67;;
19535;SDS011;9913;51.168;4.124;2024-03-02T10:47:14;10.40;;;2.00;;
19535;SDS011;9913;51.168;4.124;2024-03-02T10:49:45;13.33;;;2.20;;
19535;SDS011;9913;51.168;4.124;2024-03-02T10:52:15;5.43;;;1.33;;
19535;SDS011;9913;51.168;4.124;2024-03-02T10:54:44;8.53;;;2.03;;
19535;SDS011;9913;51.168;4.124;2024-03-02T10:57:13;6.93;;;2.07;;
19535;SDS011;9913;51.168;4.124;2024-03-02T10:59:46;5.40;;;1.60;;
19535;SDS011;9913;51.168;4.124;2024-03-02T11:02:21;6.03;;;1.63;;
19535;SDS011;9913;51.168;4.124;2024-03-02T11:04:53;4.77;;;1.50;;
19535;SDS011;9913;51.168;4.124;2024-03-02T11:07:23;5.63;;;1.80;;
19535;SDS011;9913;51.168;4.124;2024-03-02T11:09:56;7.00;;;1.33;;
19535;SDS011;9913;51.168;4.124;2024-03-02T11:12:28;7.23;;;2.10;;
19535;SDS011;9913;51.168;4.124;2024-03-02T11:15:00;4.23;;;1.70;;
19535;SDS011;9913;51.168;4.124;2024-03-02T11:17:31;8.50;;;1.50;;
19535;SDS011;9913;51.168;4.124;2024-03-02T11:20:00;4.93;;;1.70;;
19535;SDS011;9913;51.168;4.124;2024-03-02T11:22:28;5.47;;;1.70;;
19535;SDS011;9913;51.168;4.124;2024-03-02T11:24:57;5.57;;;1.40;;
19535;SDS011;9913;51.168;4.124;2024-03-02T11:30:51;4.77;;;2.00;;
19535;SDS011;9913;51.168;4.124;2024-03-02T11:33:25;7.47;;;1.90;;
19535;SDS011;9913;51.168;4.124;2024-03-02T11:35:56;7.23;;;1.40;;
19535;SDS011;9913;51.168;4.124;2024-03-02T11:38:29;8.47;;;1.97;;
19535;SDS011;9913;51.168;4.124;2024-03-02T11:41:00;5.13;;;1.60;;
19535;SDS011;9913;51.168;4.124;2024-03-02T11:43:29;6.57;;;1.53;;
19535;SDS011;9913;51.168;4.124;2024-03-02T11:45:59;7.57;;;1.70;;
19535;SDS011;9913;51.168;4.124;2024-03-02T11:48:32;5.93;;;1.70;;
19535;SDS011;9913;51.168;4.124;2024-03-02T11:51:02;7.97;;;1.37;;
19535;SDS011;9913;51.168;4.124;2024-03-02T11:53:31;7.00;;;1.83;;
19535;SDS011;9913;51.168;4.124;2024-03-02T11:56:02;5.00;;;1.50;;
19535;SDS011;9913;51.168;4.124;2024-03-02T11:58:32;7.30;;;1.60;;
19535;SDS011;9913;51.168;4.124;2024-03-02T12:01:04;7.33;;;2.03;;
19535;SDS011;9913;51.168;4.124;2024-03-02T12:03:34;6.00;;;1.60;;
19535;SDS011;9913;51.168;4.124;2024-03-02T12:06:03;7.77;;;1.60;;
19535;SDS011;9913;51.168;4.124;2024-03-02T12:08:33;4.87;;;1.93;;
19535;SDS011;9913;51.168;4.124;2024-03-02T12:11:01;6.57;;;1.90;;
19535;SDS011;9913;51.168;4.124;2024-03-02T12:13:31;6.07;;;1.97;;
19535;SDS011;9913;51.168;4.124;2024-03-02T12:16:00;7.13;;;2.07;;
19535;SDS011;9913;51.168;4.124;2024-03-02T12:18:29;7.27;;;1.50;;
19535;SDS011;9913;51.168;4.124;2024-03-02T12:20:59;4.47;;;1.47;;
19535;SDS011;9913;51.168;4.124;2024-03-02T12:23:29;3.53;;;1.20;;
19535;SDS011;9913;51.168;4.124;2024-03-02T12:25:58;5.93;;;1.60;;
19535;SDS011;9913;51.168;4.124;2024-03-02T12:28:26;5.63;;;2.47;;
19535;SDS011;9913;51.168;4.124;2024-03-02T12:30:57;4.40;;;1.40;;
19535;SDS011;9913;51.168;4.124;2024-03-02T12:33:25;8.13;;;2.03;;
19535;SDS011;9913;51.168;4.124;2024-03-02T12:35:56;5.60;;;1.80;;
19535;SDS011;9913;51.168;4.124;2024-03-02T12:38:26;6.57;;;1.70;;
19535;SDS011;9913;51.168;4.124;2024-03-02T12:40:56;6.63;;;1.30;;
19535;SDS011;9913;51.168;4.124;2024-03-02T12:43:24;5.10;;;1.70;;
19535;SDS011;9913;51.168;4.124;2024-03-02T12:45:58;4.77;;;1.33;;
19535;SDS011;9913;51.168;4.124;2024-03-02T12:48:26;6.53;;;1.60;;
19535;SDS011;9913;51.168;4.124;2024-03-02T12:50:55;4.30;;;1.53;;
19535;SDS011;9913;51.168;4.124;2024-03-02T12:53:23;8.40;;;1.90;;
19535;SDS011;9913;51.168;4.124;2024-03-02T12:55:53;8.77;;;1.40;;
19535;SDS011;9913;51.168;4.124;2024-03-02T12:58:22;4.87;;;2.13;;
19535;SDS011;9913;51.168;4.124;2024-03-02T13:01:04;5.10;;;1.70;;
19535;SDS011;9913;51.168;4.124;2024-03-02T13:03:34;8.07;;;1.70;;
19535;SDS011;9913;51.168;4.124;2024-03-02T13:06:04;3.63;;;1.10;;
19535;SDS011;9913;51.168;4.124;2024-03-02T13:08:33;3.87;;;1.30;;
19535;SDS011;9913;51.168;4.124;2024-03-02T13:11:03;5.70;;;2.00;;
19535;SDS011;9913;51.168;4.124;2024-03-02T13:13:33;4.03;;;1.40;;
19535;SDS011;9913;51.168;4.124;2024-03-02T13:16:02;4.13;;;1.20;;
19535;SDS011;9913;51.168;4.124;2024-03-02T13:18:33;4.40;;;1.90;;
19535;SDS011;9913;51.168;4.124;2024-03-02T13:21:02;5.77;;;2.00;;
19535;SDS011;9913;51.168;4.124;2024-03-02T13:23:30;4.93;;;1.40;;
19535;SDS011;9913;51.168;4.124;2024-03-02T13:25:59;5.13;;;1.20;;
19535;SDS011;9913;51.168;4.124;2024-03-02T13:28:29;5.40;;;1.33;;
19535;SDS011;9913;51.168;4.124;2024-03-02T13:30:57;5.93;;;1.13;;
19535;SDS011;9913;51.168;4.124;2024-03-02T13:33:26;5.27;;;1.23;;
19535;SDS011;9913;51.168;4.124;2024-03-02T13:35:54;5.43;;;1.40;;
19535;SDS011;9913;51.168;4.124;2024-03-02T13:38:22;3.57;;;1.50;;
19535;SDS011;9913;51.168;4.124;2024-03-02T13:40:51;3.00;;;1.30;;
19535;SDS011;9913;51.168;4.124;2024-03-02T13:43:19;6.07;;;1.40;;
19535;SDS011;9913;51.168;4.124;2024-03-02T13:45:49;3.47;;;1.47;;
19535;SDS011;9913;51.168;4.124;2024-03-02T13:48:18;4.87;;;1.67;;
19535;SDS011;9913;51.168;4.124;2024-03-02T13:50:47;4.37;;;1.40;;
19535;SDS011;9913;51.168;4.124;2024-03-02T13:53:16;4.47;;;1.10;;
19535;SDS011;9913;51.168;4.124;2024-03-02T13:55:44;3.17;;;0.97;;
19535;SDS011;9913;51.168;4.124;2024-03-02T13:58:13;4.27;;;1.30;;
19535;SDS011;9913;51.168;4.124;2024-03-02T14:00:41;2.83;;;1.03;;
19535;SDS011;9913;51.168;4.124;2024-03-02T14:03:13;5.77;;;1.37;;
19535;SDS011;9913;51.168;4.124;2024-03-02T14:05:42;3.73;;;1.10;;
19535;SDS011;9913;51.168;4.124;2024-03-02T14:08:12;3.80;;;1.13;;
19535;SDS011;9913;51.168;4.124;2024-03-02T14:10:41;2.93;;;1.10;;
19535;SDS011;9913;51.168;4.124;2024-03-02T14:13:10;5.33;;;1.27;;
19535;SDS011;9913;51.168;4.124;2024-03-02T14:15:38;3.33;;;1.00;;
19535;SDS011;9913;51.168;4.124;2024-03-02T14:18:06;3.30;;;0.93;;
19535;SDS011;9913;51.168;4.124;2024-03-02T14:20:38;3.83;;;1.10;;
19535;SDS011;9913;51.168;4.124;2024-03-02T14:23:08;3.17;;;1.00;;
19535;SDS011;9913;51.168;4.124;2024-03-02T14:25:37;4.03;;;1.10;;
19535;SDS011;9913;51.168;4.124;2024-03-02T14:28:06;2.63;;;1.17;;
19535;SDS011;9913;51.168;4.124;2024-03-02T14:30:54;4.77;;;1.10;;
19535;SDS011;9913;51.168;4.124;2024-03-02T14:33:22;4.07;;;1.10;;
19535;SDS011;9913;51.168;4.124;2024-03-02T14:35:52;3.50;;;0.93;;
19535;SDS011;9913;51.168;4.124;2024-03-02T14:38:21;5.43;;;1.53;;
19535;SDS011;9913;51.168;4.124;2024-03-02T14:40:49;5.13;;;1.67;;
19535;SDS011;9913;51.168;4.124;2024-03-02T14:43:20;3.03;;;1.03;;
19535;SDS011;9913;51.168;4.124;2024-03-02T14:45:48;3.37;;;1.00;;
19535;SDS011;9913;51.168;4.124;2024-03-02T14:48:17;2.90;;;1.30;;
19535;SDS011;9913;51.168;4.124;2024-03-02T14:50:45;4.07;;;1.53;;
19535;SDS011;9913;51.168;4.124;2024-03-02T14:53:15;3.20;;;1.50;;
19535;SDS011;9913;51.168;4.124;2024-03-02T14:55:43;3.67;;;1.50;;
19535;SDS011;9913;51.168;4.124;2024-03-02T14:58:12;2.20;;;1.20;;
19535;SDS011;9913;51.168;4.124;2024-03-02T15:00:41;4.20;;;1.53;;
19535;SDS011;9913;51.168;4.124;2024-03-02T15:03:09;5.23;;;1.53;;
19535;SDS011;9913;51.168;4.124;2024-03-02T15:05:38;4.00;;;1.60;;
19535;SDS011;9913;51.168;4.124;2024-03-02T15:08:07;2.50;;;1.03;;
19535;SDS011;9913;51.168;4.124;2024-03-02T15:10:36;4.80;;;1.40;;
19535;SDS011;9913;51.168;4.124;2024-03-02T15:13:06;3.90;;;1.23;;
19535;SDS011;9913;51.168;4.124;2024-03-02T15:15:35;2.33;;;1.17;;
19535;SDS011;9913;51.168;4.124;2024-03-02T15:18:03;6.30;;;1.50;;